Time;durP1;ratioP1;P1;durP2;ratioP2;P2;SDS_P1;SDS_P2;PMS_P1;PMS_P2;Temp;Humidity;BMP_temperature;BMP_pressure;BME280_temperature;BME280_humidity;BME280_pressure;Samples;Min_cycle;Max_cycle;Signal;HPM_P1;HPM_P2
2022/09/27 00:00:59;;;;;;;0.00;0.00;;;;;;;;;;5034092;28;20086;-87
2022/09/27 00:03:26;;;;;;;0.00;0.00;;;;;;;;;;5033772;28;20049;-87
2022/09/27 00:06:11;;;;;;;0.00;0.00;;;;;;;;;;5017241;28;20091;-87
2022/09/27 00:08:37;;;;;;;0.00;0.00;;;;;;;;;;5017221;28;20476;-87
2022/09/27 00:11:08;;;;;;;0.00;0.00;;;;;;;;;;5033565;28;20045;-86
2022/09/27 00:13:34;;;;;;;0.00;0.00;;;;;;;;;;5033391;28;20045;-87
2022/09/27 00:16:02;;;;;;;0.00;0.00;;;;;;;;;;5032897;28;20116;-85
2022/09/27 00:18:28;;;;;;;0.00;0.00;;;;;;;;;;5016763;28;20033;-85
2022/09/27 00:20:53;;;;;;;0.00;0.00;;;;;;;;;;5033282;28;20396;-87
2022/09/27 00:23:20;;;;;;;0.00;0.00;;;;;;;;;;5033449;28;20037;-87
2022/09/27 00:25:55;;;;;;;0.00;0.00;;;;;;;;;;5032938;28;20068;-87
2022/09/27 00:28:22;;;;;;;0.00;0.00;;;;;;;;;;5016835;28;20037;-87
2022/09/27 00:30:48;;;;;;;0.00;0.00;;;;;;;;;;5032779;28;20042;-87
2022/09/27 00:33:14;;;;;;;0.00;0.00;;;;;;;;;;5033141;28;20485;-87
2022/09/27 00:35:39;;;;;;;0.00;0.00;;;;;;;;;;5032755;28;20033;-88
2022/09/27 00:38:05;;;;;;;0.00;0.00;;;;;;;;;;5033304;28;20605;-89
2022/09/27 00:40:32;;;;;;;0.00;0.00;;;;;;;;;;5017229;28;20038;-88
2022/09/27 00:42:58;;;;;;;0.00;0.00;;;;;;;;;;5016513;28;20083;-86
2022/09/27 00:45:24;;;;;;;0.00;0.00;;;;;;;;;;5016379;28;20134;-85
2022/09/27 00:47:52;;;;;;;0.00;0.00;;;;;;;;;;5032654;28;20096;-87
2022/09/27 00:50:21;;;;;;;0.00;0.00;;;;;;;;;;5016290;28;20052;-87
2022/09/27 00:52:55;;;;;;;0.00;0.00;;;;;;;;;;5015968;28;20037;-88
2022/09/27 00:55:30;;;;;;;0.00;0.00;;;;;;;;;;5016448;28;20136;-89
2022/09/27 00:57:56;;;;;;;0.00;0.00;;;;;;;;;;5017527;28;20041;-89
2022/09/27 01:00:22;;;;;;;0.00;0.00;;;;;;;;;;5016806;28;20037;-88
2022/09/27 01:02:53;;;;;;;0.00;0.00;;;;;;;;;;5032411;28;20044;-89
2022/09/27 01:05:20;;;;;;;0.00;0.00;;;;;;;;;;5016223;28;20469;-88
2022/09/27 01:07:46;;;;;;;0.00;0.00;;;;;;;;;;5015873;28;20041;-87
2022/09/27 01:10:12;;;;;;;0.00;0.00;;;;;;;;;;5031950;28;20048;-88
2022/09/27 01:12:58;;;;;;;0.00;0.00;;;;;;;;;;5032227;28;20082;-88
2022/09/27 01:15:42;;;;;;;0.00;0.00;;;;;;;;;;5032153;28;20057;-87
2022/09/27 01:18:17;;;;;;;0.00;0.00;;;;;;;;;;5015520;28;20095;-87
2022/09/27 01:20:46;;;;;;;0.00;0.00;;;;;;;;;;5032229;28;20049;-87
2022/09/27 01:23:12;;;;;;;0.00;0.00;;;;;;;;;;5015520;28;20499;-87
2022/09/27 01:25:50;;;;;;;0.00;0.00;;;;;;;;;;5032093;28;20048;-87
2022/09/27 01:28:23;;;;;;;0.00;0.00;;;;;;;;;;5015421;28;20045;-88
2022/09/27 01:31:04;;;;;;;0.00;0.00;;;;;;;;;;5032029;28;20091;-87
2022/09/27 01:33:39;;;;;;;0.00;0.00;;;;;;;;;;5015476;28;20047;-87
2022/09/27 01:36:09;;;;;;;0.00;0.00;;;;;;;;;;5014192;28;20037;-87
2022/09/27 01:38:38;;;;;;;0.00;0.00;;;;;;;;;;5031886;28;20128;-88
2022/09/27 01:41:27;;;;;;;0.00;0.00;;;;;;;;;;5031843;28;20038;-87
2022/09/27 01:43:54;;;;;;;0.00;0.00;;;;;;;;;;5026914;28;20412;-87
2022/09/27 01:46:31;;;;;;;0.00;0.00;;;;;;;;;;5031622;28;20053;-87
2022/09/27 01:48:57;;;;;;;0.00;0.00;;;;;;;;;;5031886;28;20033;-87
2022/09/27 01:51:33;;;;;;;0.00;0.00;;;;;;;;;;5015341;28;20045;-88
2022/09/27 01:54:01;;;;;;;0.00;0.00;;;;;;;;;;5031853;28;20081;-88
2022/09/27 01:56:46;;;;;;;0.00;0.00;;;;;;;;;;5031842;28;20381;-88
2022/09/27 01:59:15;;;;;;;0.00;0.00;;;;;;;;;;5015169;28;20115;-89
2022/09/27 02:01:43;;;;;;;0.00;0.00;;;;;;;;;;5031566;28;20485;-88
2022/09/27 02:04:12;;;;;;;0.00;0.00;;;;;;;;;;5014978;28;20124;-87
2022/09/27 02:06:39;;;;;;;0.00;0.00;;;;;;;;;;5031734;28;20084;-88
2022/09/27 02:09:14;;;;;;;0.00;0.00;;;;;;;;;;5031795;28;20500;-87
2022/09/27 02:11:41;;;;;;;0.00;0.00;;;;;;;;;;5030191;28;20124;-88
2022/09/27 02:14:26;;;;;;;0.00;0.00;;;;;;;;;;5031337;28;20099;-88
2022/09/27 02:16:52;;;;;;;0.00;0.00;;;;;;;;;;5014942;28;20052;-87
2022/09/27 02:19:18;;;;;;;0.00;0.00;;;;;;;;;;5031502;28;20037;-87
2022/09/27 02:22:10;;;;;;;0.00;0.00;;;;;;;;;;5031059;28;20041;-87
2022/09/27 02:24:55;;;;;;;0.00;0.00;;;;;;;;;;5017318;28;20503;-88
2022/09/27 02:27:24;;;;;;;0.00;0.00;;;;;;;;;;5035232;28;20037;-87
2022/09/27 02:29:58;;;;;;;0.00;0.00;;;;;;;;;;5018831;28;20091;-85
2022/09/27 02:32:24;;;;;;;0.00;0.00;;;;;;;;;;5018572;28;20144;-86
2022/09/27 02:34:56;;;;;;;0.00;0.00;;;;;;;;;;5035404;28;20457;-86
2022/09/27 02:37:22;;;;;;;0.00;0.00;;;;;;;;;;5018581;28;20080;-87
2022/09/27 02:39:48;;;;;;;0.00;0.00;;;;;;;;;;5035082;28;20103;-87
2022/09/27 02:42:14;;;;;;;0.00;0.00;;;;;;;;;;5018335;28;20073;-87
2022/09/27 02:44:41;;;;;;;0.00;0.00;;;;;;;;;;5035499;28;20366;-86
2022/09/27 02:47:12;;;;;;;0.00;0.00;;;;;;;;;;5034756;28;20045;-86
2022/09/27 02:49:41;;;;;;;0.00;0.00;;;;;;;;;;5035392;28;20052;-87
2022/09/27 02:52:27;;;;;;;0.00;0.00;;;;;;;;;;5018158;28;20045;-87
2022/09/27 02:54:59;;;;;;;0.00;0.00;;;;;;;;;;5034884;28;20033;-87
2022/09/27 02:57:28;;;;;;;0.00;0.00;;;;;;;;;;5034864;28;20038;-90
2022/09/27 03:00:08;;;;;;;0.00;0.00;;;;;;;;;;5018898;28;20075;-88
2022/09/27 03:02:40;;;;;;;0.00;0.00;;;;;;;;;;5034853;28;20119;-88
2022/09/27 03:05:10;;;;;;;0.00;0.00;;;;;;;;;;5018899;28;20053;-91
2022/09/27 03:07:37;;;;;;;0.00;0.00;;;;;;;;;;5034974;28;20103;-89
2022/09/27 03:10:04;;;;;;;0.00;0.00;;;;;;;;;;5034692;28;20052;-86
2022/09/27 03:12:30;;;;;;;0.00;0.00;;;;;;;;;;5017938;28;20041;-87
2022/09/27 03:14:57;;;;;;;0.00;0.00;;;;;;;;;;5034374;28;20060;-88
2022/09/27 03:17:23;;;;;;;0.00;0.00;;;;;;;;;;5018131;28;20437;-87
2022/09/27 03:19:52;;;;;;;0.00;0.00;;;;;;;;;;5034447;28;20123;-87
2022/09/27 03:22:18;;;;;;;0.00;0.00;;;;;;;;;;5017723;28;20041;-88
2022/09/27 03:24:44;;;;;;;0.00;0.00;;;;;;;;;;5034325;28;20041;-88
2022/09/27 03:27:11;;;;;;;0.00;0.00;;;;;;;;;;5034275;28;20382;-88
2022/09/27 03:29:37;;;;;;;0.00;0.00;;;;;;;;;;5017728;28;20508;-87
2022/09/27 03:32:03;;;;;;;0.00;0.00;;;;;;;;;;5017543;28;20041;-86
2022/09/27 03:34:29;;;;;;;0.00;0.00;;;;;;;;;;5033396;28;20042;-87
2022/09/27 03:36:56;;;;;;;0.00;0.00;;;;;;;;;;5017692;28;20041;-88
2022/09/27 03:39:22;;;;;;;0.00;0.00;;;;;;;;;;5017377;28;20435;-87
2022/09/27 03:41:48;;;;;;;0.00;0.00;;;;;;;;;;5017398;28;20041;-87
2022/09/27 03:44:14;;;;;;;0.00;0.00;;;;;;;;;;5033824;28;20396;-86
2022/09/27 03:46:40;;;;;;;0.00;0.00;;;;;;;;;;5034007;28;20072;-86
2022/09/27 03:49:06;;;;;;;0.00;0.00;;;;;;;;;;5033635;28;20037;-86
2022/09/27 03:51:32;;;;;;;0.00;0.00;;;;;;;;;;5017360;28;20056;-86
2022/09/27 03:53:58;;;;;;;0.00;0.00;;;;;;;;;;5016985;28;20179;-87
2022/09/27 03:56:24;;;;;;;0.00;0.00;;;;;;;;;;5033901;28;20183;-88
2022/09/27 03:58:50;;;;;;;0.00;0.00;;;;;;;;;;5017100;28;20499;-88
2022/09/27 04:01:16;;;;;;;0.00;0.00;;;;;;;;;;5033738;28;20073;-87
2022/09/27 04:03:42;;;;;;;0.00;0.00;;;;;;;;;;5033373;28;20126;-88
2022/09/27 04:06:08;;;;;;;0.00;0.00;;;;;;;;;;5017393;28;20095;-87
2022/09/27 04:08:35;;;;;;;0.00;0.00;;;;;;;;;;5033401;28;20042;-88
2022/09/27 04:11:02;;;;;;;0.00;0.00;;;;;;;;;;5017243;28;20489;-88
2022/09/27 04:13:28;;;;;;;0.00;0.00;;;;;;;;;;5033290;28;20124;-89
2022/09/27 04:15:54;;;;;;;0.00;0.00;;;;;;;;;;5033264;28;20081;-88
2022/09/27 04:18:20;;;;;;;0.00;0.00;;;;;;;;;;5033261;28;20381;-88
2022/09/27 04:20:46;;;;;;;0.00;0.00;;;;;;;;;;5016919;28;20545;-87
2022/09/27 04:23:12;;;;;;;0.00;0.00;;;;;;;;;;5016973;28;20392;-87
2022/09/27 04:25:38;;;;;;;0.00;0.00;;;;;;;;;;5033096;28;20124;-88
2022/09/27 04:28:05;;;;;;;0.00;0.00;;;;;;;;;;5016466;28;20131;-88
2022/09/27 04:30:31;;;;;;;0.00;0.00;;;;;;;;;;5033167;28;20124;-88
2022/09/27 04:32:57;;;;;;;0.00;0.00;;;;;;;;;;5032888;28;20053;-87
2022/09/27 04:38:08;;;;;;;0.00;0.00;;;;;;;;;;5033063;28;20041;-88
2022/09/27 04:40:34;;;;;;;0.00;0.00;;;;;;;;;;5033057;28;20284;-88
2022/09/27 04:43:00;;;;;;;0.00;0.00;;;;;;;;;;5016470;28;20457;-88
2022/09/27 04:45:26;;;;;;;0.00;0.00;;;;;;;;;;5032136;28;20037;-87
2022/09/27 04:47:52;;;;;;;0.00;0.00;;;;;;;;;;5032968;28;20053;-87
2022/09/27 04:50:19;;;;;;;0.00;0.00;;;;;;;;;;5034784;28;20041;-86
2022/09/27 04:52:49;;;;;;;0.00;0.00;;;;;;;;;;5032388;28;20127;-88
2022/09/27 04:55:15;;;;;;;0.00;0.00;;;;;;;;;;5032518;28;20485;-88
2022/09/27 04:57:41;;;;;;;0.00;0.00;;;;;;;;;;5032549;28;20041;-87
2022/09/27 05:00:07;;;;;;;0.00;0.00;;;;;;;;;;5032341;28;20041;-88
2022/09/27 05:02:33;;;;;;;0.00;0.00;;;;;;;;;;5032570;28;20045;-87
2022/09/27 05:04:59;;;;;;;0.00;0.00;;;;;;;;;;5015834;28;20124;-87
2022/09/27 05:07:28;;;;;;;0.00;0.00;;;;;;;;;;5032292;28;20507;-87
2022/09/27 05:09:55;;;;;;;0.00;0.00;;;;;;;;;;5015643;28;20037;-87
2022/09/27 05:12:25;;;;;;;0.00;0.00;;;;;;;;;;5032493;28;20382;-88
2022/09/27 05:14:51;;;;;;;0.00;0.00;;;;;;;;;;5031894;28;20054;-87
2022/09/27 05:17:19;;;;;;;0.00;0.00;;;;;;;;;;5032475;28;20053;-88
2022/09/27 05:19:45;;;;;;;0.00;0.00;;;;;;;;;;5015445;28;20037;-87
2022/09/27 05:22:11;;;;;;;0.00;0.00;;;;;;;;;;5032118;28;20395;-87
2022/09/27 05:24:38;;;;;;;0.00;0.00;;;;;;;;;;5032070;28;20110;-87
2022/09/27 05:27:07;;;;;;;0.00;0.00;;;;;;;;;;5031936;28;20094;-86
2022/09/27 05:29:34;;;;;;;0.00;0.00;;;;;;;;;;5031752;28;20080;-87
2022/09/27 05:32:00;;;;;;;0.00;0.00;;;;;;;;;;5032159;28;20045;-86
2022/09/27 05:34:26;;;;;;;0.00;0.00;;;;;;;;;;5031617;28;20069;-87
2022/09/27 05:36:52;;;;;;;0.00;0.00;;;;;;;;;;5015376;28;20396;-86
2022/09/27 05:39:18;;;;;;;0.00;0.00;;;;;;;;;;5031937;28;20045;-88
2022/09/27 05:41:44;;;;;;;0.00;0.00;;;;;;;;;;5031876;28;20042;-87
2022/09/27 05:44:12;;;;;;;0.00;0.00;;;;;;;;;;5031511;28;20034;-85
2022/09/27 05:46:38;;;;;;;0.00;0.00;;;;;;;;;;5031808;28;20045;-86
2022/09/27 05:49:04;;;;;;;0.00;0.00;;;;;;;;;;5015064;28;20037;-86
2022/09/27 05:51:30;;;;;;;0.00;0.00;;;;;;;;;;5031868;28;20076;-86
2022/09/27 05:53:56;;;;;;;0.00;0.00;;;;;;;;;;5031650;28;20041;-87
2022/09/27 05:56:23;;;;;;;0.00;0.00;;;;;;;;;;5031659;28;20488;-86
2022/09/27 05:58:49;;;;;;;0.00;0.00;;;;;;;;;;5015199;28;20088;-86
2022/09/27 06:01:15;;;;;;;0.00;0.00;;;;;;;;;;5031398;28;20041;-86
2022/09/27 06:03:41;;;;;;;0.00;0.00;;;;;;;;;;5014874;28;20041;-86
2022/09/27 06:06:09;;;;;;;0.00;0.00;;;;;;;;;;5015588;28;20123;-88
2022/09/27 06:08:37;;;;;;;0.00;0.00;;;;;;;;;;5032520;28;20099;-87
2022/09/27 06:11:04;;;;;;;0.00;0.00;;;;;;;;;;5032144;28;20045;-87
2022/09/27 06:13:32;;;;;;;0.00;0.00;;;;;;;;;;5015833;28;20052;-87
2022/09/27 06:15:58;;;;;;;0.00;0.00;;;;;;;;;;5031219;28;20049;-87
2022/09/27 06:18:24;;;;;;;0.00;0.00;;;;;;;;;;5031679;28;20045;-89
2022/09/27 06:20:53;;;;;;;0.00;0.00;;;;;;;;;;5031450;28;20543;-87
2022/09/27 06:23:21;;;;;;;0.00;0.00;;;;;;;;;;5014907;28;20112;-85
2022/09/27 06:25:47;;;;;;;0.00;0.00;;;;;;;;;;5030746;28;20049;-87
2022/09/27 06:28:13;;;;;;;0.00;0.00;;;;;;;;;;5031039;28;20548;-85
2022/09/27 06:30:40;;;;;;;0.00;0.00;;;;;;;;;;5031382;28;20088;-87
2022/09/27 06:33:06;;;;;;;0.00;0.00;;;;;;;;;;5031928;28;20042;-90
2022/09/27 06:35:34;;;;;;;0.00;0.00;;;;;;;;;;5015847;28;20041;-87
2022/09/27 06:38:03;;;;;;;0.00;0.00;;;;;;;;;;5030660;28;20045;-84
2022/09/27 06:40:29;;;;;;;0.00;0.00;;;;;;;;;;5013940;28;20546;-82
2022/09/27 06:43:01;;;;;;;0.00;0.00;;;;;;;;;;5031029;28;20051;-87
2022/09/27 06:45:27;;;;;;;0.00;0.00;;;;;;;;;;5030990;28;20135;-87
2022/09/27 06:47:54;;;;;;;0.00;0.00;;;;;;;;;;5030761;28;20603;-86
2022/09/27 06:50:20;;;;;;;0.00;0.00;;;;;;;;;;5030714;28;20049;-86
2022/09/27 06:52:50;;;;;;;0.00;0.00;;;;;;;;;;5030623;28;20059;-88
2022/09/27 06:55:16;;;;;;;0.00;0.00;;;;;;;;;;5030402;28;20041;-87
2022/09/27 07:00:27;;;;;;;0.00;0.00;;;;;;;;;;5030920;28;20049;-87
2022/09/27 07:02:56;;;;;;;0.00;0.00;;;;;;;;;;5030592;28;20187;-87
2022/09/27 07:05:22;;;;;;;0.00;0.00;;;;;;;;;;5014358;28;20404;-88
2022/09/27 07:07:49;;;;;;;0.00;0.00;;;;;;;;;;5006761;28;20056;-87
2022/09/27 07:10:17;;;;;;;0.00;0.00;;;;;;;;;;5017143;28;20038;-88
2022/09/27 07:12:46;;;;;;;0.00;0.00;;;;;;;;;;5017789;28;20131;-87
2022/09/27 07:15:12;;;;;;;0.00;0.00;;;;;;;;;;5017209;28;20053;-88
2022/09/27 07:17:38;;;;;;;0.00;0.00;;;;;;;;;;5034495;28;20037;-89
2022/09/27 07:20:04;;;;;;;0.00;0.00;;;;;;;;;;5018312;28;20043;-86
2022/09/27 07:22:30;;;;;;;0.00;0.00;;;;;;;;;;5017519;28;20428;-88
2022/09/27 07:24:56;;;;;;;0.00;0.00;;;;;;;;;;5015271;28;20038;-89
2022/09/27 07:27:24;;;;;;;0.00;0.00;;;;;;;;;;5015482;28;20048;-89
2022/09/27 07:29:50;;;;;;;0.00;0.00;;;;;;;;;;4998263;28;20041;-89
2022/09/27 07:32:16;;;;;;;0.00;0.00;;;;;;;;;;4998556;28;20182;-90
2022/09/27 07:34:42;;;;;;;0.00;0.00;;;;;;;;;;5015334;28;20041;-90
2022/09/27 07:37:08;;;;;;;0.00;0.00;;;;;;;;;;5015530;28;20436;-87
2022/09/27 07:39:34;;;;;;;0.00;0.00;;;;;;;;;;5015132;28;20046;-90
2022/09/27 07:42:01;;;;;;;0.00;0.00;;;;;;;;;;5015868;28;20383;-89
2022/09/27 07:44:27;;;;;;;0.00;0.00;;;;;;;;;;5015066;28;20281;-90
2022/09/27 07:46:53;;;;;;;0.00;0.00;;;;;;;;;;5015355;28;20114;-89
2022/09/27 07:49:19;;;;;;;0.00;0.00;;;;;;;;;;5015146;28;20073;-88
2022/09/27 07:51:45;;;;;;;0.00;0.00;;;;;;;;;;5013952;28;20401;-84
2022/09/27 07:54:11;;;;;;;0.00;0.00;;;;;;;;;;5013948;28;20038;-88
2022/09/27 07:56:37;;;;;;;0.00;0.00;;;;;;;;;;5033506;28;20073;-86
2022/09/27 07:59:03;;;;;;;0.00;0.00;;;;;;;;;;5014228;28;20124;-86
2022/09/27 08:01:29;;;;;;;0.00;0.00;;;;;;;;;;4997599;28;20485;-87
2022/09/27 08:03:57;;;;;;;0.00;0.00;;;;;;;;;;4997618;28;20060;-88
2022/09/27 08:06:24;;;;;;;0.00;0.00;;;;;;;;;;4997441;28;20042;-87
2022/09/27 08:08:50;;;;;;;0.00;0.00;;;;;;;;;;5014089;28;20046;-86
2022/09/27 08:11:17;;;;;;;0.00;0.00;;;;;;;;;;5013699;28;20046;-86
2022/09/27 08:13:43;;;;;;;0.00;0.00;;;;;;;;;;4997340;28;20091;-86
2022/09/27 08:16:15;;;;;;;0.00;0.00;;;;;;;;;;5013566;28;20085;-87
2022/09/27 08:18:41;;;;;;;0.00;0.00;;;;;;;;;;5013757;28;20120;-85
2022/09/27 08:21:07;;;;;;;0.00;0.00;;;;;;;;;;5012331;28;20172;-86
2022/09/27 08:23:35;;;;;;;0.00;0.00;;;;;;;;;;4997187;28;20080;-84
2022/09/27 08:26:01;;;;;;;0.00;0.00;;;;;;;;;;5013454;28;20046;-88
2022/09/27 08:28:27;;;;;;;0.00;0.00;;;;;;;;;;5029792;28;20515;-87
2022/09/27 08:30:54;;;;;;;0.00;0.00;;;;;;;;;;5034746;28;20450;-86
2022/09/27 08:33:20;;;;;;;0.00;0.00;;;;;;;;;;5035488;28;20040;-87
2022/09/27 08:35:46;;;;;;;0.00;0.00;;;;;;;;;;5034993;28;20041;-87
2022/09/27 08:38:12;;;;;;;0.00;0.00;;;;;;;;;;5019246;28;20492;-88
2022/09/27 08:40:45;;;;;;;0.00;0.00;;;;;;;;;;5035352;28;20049;-88
2022/09/27 08:43:30;;;;;;;0.00;0.00;;;;;;;;;;5034824;28;20073;-88
2022/09/27 08:46:02;;;;;;;0.00;0.00;;;;;;;;;;5018512;28;20049;-87
2022/09/27 08:48:29;;;;;;;0.00;0.00;;;;;;;;;;5033037;28;20046;-87
2022/09/27 08:50:56;;;;;;;0.00;0.00;;;;;;;;;;5032848;28;20041;-89
2022/09/27 08:53:22;;;;;;;0.00;0.00;;;;;;;;;;5016316;28;20040;-87
2022/09/27 08:55:56;;;;;;;0.00;0.00;;;;;;;;;;5032881;28;20041;-86
2022/09/27 08:58:30;;;;;;;0.00;0.00;;;;;;;;;;5016259;28;20087;-86
2022/09/27 09:01:02;;;;;;;0.00;0.00;;;;;;;;;;5016246;28;20042;-87
2022/09/27 09:03:29;;;;;;;0.00;0.00;;;;;;;;;;5016223;28;20057;-87
2022/09/27 09:06:01;;;;;;;0.00;0.00;;;;;;;;;;5031525;28;20037;-86
2022/09/27 09:08:33;;;;;;;0.00;0.00;;;;;;;;;;5032507;28;20575;-86
2022/09/27 09:13:51;;;;;;;0.00;0.00;;;;;;;;;;5032552;28;20045;-88
2022/09/27 09:16:38;;;;;;;0.00;0.00;;;;;;;;;;5016324;28;20072;-89
2022/09/27 09:19:16;;;;;;;0.00;0.00;;;;;;;;;;5032592;28;20042;-89
2022/09/27 09:21:51;;;;;;;0.00;0.00;;;;;;;;;;5032066;28;20064;-86
2022/09/27 09:24:23;;;;;;;0.00;0.00;;;;;;;;;;5032093;28;20052;-86
2022/09/27 09:27:11;;;;;;;0.00;0.00;;;;;;;;;;5018416;28;20045;-86
2022/09/27 09:29:56;;;;;;;0.00;0.00;;;;;;;;;;5032272;28;20047;-86
2022/09/27 09:32:28;;;;;;;0.00;0.00;;;;;;;;;;5031379;28;20037;-86
2022/09/27 09:34:57;;;;;;;0.00;0.00;;;;;;;;;;5032545;28;20429;-88
2022/09/27 09:37:33;;;;;;;0.00;0.00;;;;;;;;;;5031806;28;20433;-87
2022/09/27 09:40:05;;;;;;;0.00;0.00;;;;;;;;;;5032124;28;20038;-88
2022/09/27 09:42:40;;;;;;;0.00;0.00;;;;;;;;;;5015402;28;20037;-89
2022/09/27 09:45:15;;;;;;;0.00;0.00;;;;;;;;;;5032047;28;20049;-86
2022/09/27 09:47:41;;;;;;;0.00;0.00;;;;;;;;;;5015622;28;20469;-87
2022/09/27 09:50:16;;;;;;;0.00;0.00;;;;;;;;;;5015699;28;20081;-84
2022/09/27 09:52:47;;;;;;;0.00;0.00;;;;;;;;;;5015282;28;20045;-87
2022/09/27 09:55:13;;;;;;;0.00;0.00;;;;;;;;;;5015201;28;20091;-86
2022/09/27 09:57:44;;;;;;;0.00;0.00;;;;;;;;;;5015208;28;20037;-86
2022/09/27 10:00:14;;;;;;;0.00;0.00;;;;;;;;;;5031804;28;20088;-86
2022/09/27 10:02:45;;;;;;;0.00;0.00;;;;;;;;;;5031492;28;20091;-86
2022/09/27 10:05:15;;;;;;;0.00;0.00;;;;;;;;;;5031526;28;20046;-86
2022/09/27 10:07:41;;;;;;;0.00;0.00;;;;;;;;;;5031550;28;20049;-87
2022/09/27 10:10:10;;;;;;;0.00;0.00;;;;;;;;;;5031717;28;20045;-88
2022/09/27 10:12:36;;;;;;;0.00;0.00;;;;;;;;;;5031691;28;20499;-87
2022/09/27 10:15:04;;;;;;;0.00;0.00;;;;;;;;;;5015375;28;20107;-89
2022/09/27 10:17:35;;;;;;;0.00;0.00;;;;;;;;;;5031550;28;20042;-88
2022/09/27 10:20:02;;;;;;;0.00;0.00;;;;;;;;;;5015097;28;20042;-86
2022/09/27 10:22:35;;;;;;;0.00;0.00;;;;;;;;;;5031676;28;20131;-86
2022/09/27 10:25:05;;;;;;;0.00;0.00;;;;;;;;;;5031507;28;20045;-87
2022/09/27 10:27:40;;;;;;;0.00;0.00;;;;;;;;;;5047550;28;20561;-87
2022/09/27 10:30:06;;;;;;;0.00;0.00;;;;;;;;;;5051379;28;20040;-87
2022/09/27 10:32:35;;;;;;;0.00;0.00;;;;;;;;;;5051303;28;20041;-85
2022/09/27 10:35:20;;;;;;;0.00;0.00;;;;;;;;;;5034860;28;20041;-85
2022/09/27 10:37:46;;;;;;;0.00;0.00;;;;;;;;;;5034238;28;20041;-85
2022/09/27 10:40:25;;;;;;;0.00;0.00;;;;;;;;;;5051184;28;20041;-85
2022/09/27 10:42:54;;;;;;;0.00;0.00;;;;;;;;;;5051008;28;20526;-86
2022/09/27 10:45:25;;;;;;;0.00;0.00;;;;;;;;;;5037913;28;20400;-85
2022/09/27 10:47:54;;;;;;;0.00;0.00;;;;;;;;;;5054720;28;20056;-86
2022/09/27 10:50:25;;;;;;;0.00;0.00;;;;;;;;;;5054960;28;20041;-86
2022/09/27 10:53:00;;;;;;;0.00;0.00;;;;;;;;;;5054828;28;20439;-86
2022/09/27 10:55:26;;;;;;;0.00;0.00;;;;;;;;;;5054754;28;20086;-84
2022/09/27 10:57:53;;;;;;;0.00;0.00;;;;;;;;;;5054798;28;20072;-86
2022/09/27 11:00:22;;;;;;;0.00;0.00;;;;;;;;;;5055645;28;20037;-86
2022/09/27 11:03:03;;;;;;;0.00;0.00;;;;;;;;;;5054378;28;20040;-86
2022/09/27 11:05:32;;;;;;;0.00;0.00;;;;;;;;;;5038009;28;20041;-87
2022/09/27 11:08:01;;;;;;;0.00;0.00;;;;;;;;;;5037831;28;20396;-87
2022/09/27 11:10:35;;;;;;;0.00;0.00;;;;;;;;;;5038041;28;20048;-88
2022/09/27 11:13:11;;;;;;;0.00;0.00;;;;;;;;;;5054548;28;20445;-87
2022/09/27 11:15:57;;;;;;;0.00;0.00;;;;;;;;;;5037611;28;20049;-86
2022/09/27 11:18:54;;;;;;;0.00;0.00;;;;;;;;;;5053933;28;20087;-85
2022/09/27 11:21:41;;;;;;;0.00;0.00;;;;;;;;;;5038162;28;20045;-86
2022/09/27 11:24:21;;;;;;;0.00;0.00;;;;;;;;;;5054261;28;20053;-86
2022/09/27 11:27:22;;;;;;;0.00;0.00;;;;;;;;;;5037638;28;20044;-85
2022/09/27 11:29:54;;;;;;;0.00;0.00;;;;;;;;;;4994004;28;20101;-85
2022/09/27 11:32:24;;;;;;;0.00;0.00;;;;;;;;;;5041341;28;20136;-86
2022/09/27 11:35:08;;;;;;;0.00;0.00;;;;;;;;;;5053952;28;20404;-85
2022/09/27 11:37:40;;;;;;;0.00;0.00;;;;;;;;;;5037199;28;20041;-85
2022/09/27 11:40:09;;;;;;;0.00;0.00;;;;;;;;;;5054321;28;20040;-86
2022/09/27 11:42:58;;;;;;;0.00;0.00;;;;;;;;;;5054452;28;20044;-85
2022/09/27 11:45:27;;;;;;;0.00;0.00;;;;;;;;;;5037316;28;20080;-90
2022/09/27 11:47:59;;;;;;;0.00;0.00;;;;;;;;;;5053734;28;20562;-83
2022/09/27 11:50:49;;;;;;;0.00;0.00;;;;;;;;;;5037186;28;20095;-84
2022/09/27 11:53:42;;;;;;;0.00;0.00;;;;;;;;;;5053577;28;20048;-84
2022/09/27 11:56:20;;;;;;;0.00;0.00;;;;;;;;;;5021590;28;20084;-86
2022/09/27 11:58:56;;;;;;;0.00;0.00;;;;;;;;;;5036767;28;20044;-85
2022/09/27 12:01:30;;;;;;;0.00;0.00;;;;;;;;;;5037251;28;20120;-86
2022/09/27 12:04:05;;;;;;;0.00;0.00;;;;;;;;;;5053284;28;20037;-85
2022/09/27 12:06:33;;;;;;;0.00;0.00;;;;;;;;;;5036715;28;20044;-85
2022/09/27 12:09:03;;;;;;;0.00;0.00;;;;;;;;;;5053333;28;20053;-85
2022/09/27 12:11:34;;;;;;;0.00;0.00;;;;;;;;;;5036698;28;20037;-85
2022/09/27 12:14:03;;;;;;;0.00;0.00;;;;;;;;;;5052952;28;20374;-85
2022/09/27 12:16:30;;;;;;;0.00;0.00;;;;;;;;;;5053330;28;20498;-86
2022/09/27 12:18:57;;;;;;;0.00;0.00;;;;;;;;;;5053996;28;20060;-84
2022/09/27 12:21:24;;;;;;;0.00;0.00;;;;;;;;;;5053217;28;20037;-85
2022/09/27 12:23:53;;;;;;;0.00;0.00;;;;;;;;;;5036332;28;20037;-85
2022/09/27 12:26:36;;;;;;;0.00;0.00;;;;;;;;;;5053080;28;20370;-86
2022/09/27 12:29:20;;;;;;;0.00;0.00;;;;;;;;;;5052757;28;20044;-85
2022/09/27 12:31:50;;;;;;;0.00;0.00;;;;;;;;;;5053155;28;20049;-85
2022/09/27 12:34:35;;;;;;;0.00;0.00;;;;;;;;;;5052804;28;20114;-82
2022/09/27 12:37:13;;;;;;;0.00;0.00;;;;;;;;;;5040078;28;20045;-85
2022/09/27 12:39:48;;;;;;;0.00;0.00;;;;;;;;;;4998844;28;20511;-85
2022/09/27 12:42:22;;;;;;;0.00;0.00;;;;;;;;;;5013232;28;20042;-86
2022/09/27 12:44:48;;;;;;;0.00;0.00;;;;;;;;;;4996563;28;20053;-85
2022/09/27 12:47:35;;;;;;;0.00;0.00;;;;;;;;;;4996647;28;20104;-85
2022/09/27 12:50:01;;;;;;;0.00;0.00;;;;;;;;;;5012820;28;20401;-85
2022/09/27 12:52:31;;;;;;;0.00;0.00;;;;;;;;;;5012856;28;20045;-84
2022/09/27 12:55:16;;;;;;;0.00;0.00;;;;;;;;;;4996299;28;20124;-85
2022/09/27 12:57:42;;;;;;;0.00;0.00;;;;;;;;;;5012817;28;20100;-85
2022/09/27 13:00:09;;;;;;;0.00;0.00;;;;;;;;;;4995627;28;20401;-86
2022/09/27 13:02:54;;;;;;;0.00;0.00;;;;;;;;;;5012661;28;20046;-86
2022/09/27 13:05:29;;;;;;;0.00;0.00;;;;;;;;;;5013639;28;20045;-86
2022/09/27 13:07:58;;;;;;;0.00;0.00;;;;;;;;;;5013829;28;20091;-86
2022/09/27 13:10:27;;;;;;;0.00;0.00;;;;;;;;;;5013885;28;20100;-86
2022/09/27 13:12:55;;;;;;;0.00;0.00;;;;;;;;;;4996707;28;20049;-87
2022/09/27 13:15:31;;;;;;;0.00;0.00;;;;;;;;;;4996383;28;20053;-86
2022/09/27 13:17:58;;;;;;;0.00;0.00;;;;;;;;;;5013082;28;20544;-85
2022/09/27 13:20:30;;;;;;;0.00;0.00;;;;;;;;;;5013223;28;20045;-86
2022/09/27 13:23:01;;;;;;;0.00;0.00;;;;;;;;;;4996381;28;20454;-86
2022/09/27 13:25:45;;;;;;;0.00;0.00;;;;;;;;;;5011956;28;20112;-86
2022/09/27 13:28:35;;;;;;;0.00;0.00;;;;;;;;;;5011977;28;20460;-86
2022/09/27 13:31:11;;;;;;;0.00;0.00;;;;;;;;;;5012166;28;20392;-85
2022/09/27 13:33:42;;;;;;;0.00;0.00;;;;;;;;;;5011808;28;20512;-86
2022/09/27 13:36:21;;;;;;;0.00;0.00;;;;;;;;;;4995521;28;20049;-85
2022/09/27 13:39:00;;;;;;;0.00;0.00;;;;;;;;;;4995748;28;20057;-85
2022/09/27 13:41:28;;;;;;;0.00;0.00;;;;;;;;;;4995797;28;20477;-86
2022/09/27 13:44:04;;;;;;;0.00;0.00;;;;;;;;;;5011646;28;20421;-86
2022/09/27 13:46:31;;;;;;;0.00;0.00;;;;;;;;;;4994438;28;20045;-86
2022/09/27 13:49:11;;;;;;;0.00;0.00;;;;;;;;;;5011891;28;20049;-85
2022/09/27 13:51:46;;;;;;;0.00;0.00;;;;;;;;;;4995840;28;20127;-85
2022/09/27 13:54:12;;;;;;;;;;;;;;;;;;5012151;28;20073;-85
2022/09/27 13:56:46;;;;;;;0.00;0.00;;;;;;;;;;5012123;28;20014;-85
2022/09/27 13:59:15;;;;;;;0.00;0.00;;;;;;;;;;5012865;28;20050;-85
2022/09/27 14:01:43;;;;;;;0.00;0.00;;;;;;;;;;4995782;28;20073;-85
2022/09/27 14:04:20;;;;;;;0.00;0.00;;;;;;;;;;4995593;28;20045;-86
2022/09/27 14:06:56;;;;;;;0.00;0.00;;;;;;;;;;5013120;28;20037;-87
2022/09/27 14:09:25;;;;;;;0.00;0.00;;;;;;;;;;5011662;28;20041;-86
2022/09/27 14:11:53;;;;;;;0.00;0.00;;;;;;;;;;4995760;28;20400;-85
2022/09/27 14:14:22;;;;;;;0.00;0.00;;;;;;;;;;4994975;28;20057;-86
2022/09/27 14:16:48;;;;;;;0.00;0.00;;;;;;;;;;5011713;28;20444;-85
2022/09/27 14:19:16;;;;;;;0.00;0.00;;;;;;;;;;4998828;28;20042;-86
2022/09/27 14:21:42;;;;;;;0.00;0.00;;;;;;;;;;5016139;28;20370;-86
2022/09/27 14:24:19;;;;;;;0.00;0.00;;;;;;;;;;5015562;28;20525;-86
2022/09/27 14:26:45;;;;;;;0.00;0.00;;;;;;;;;;5016103;28;20080;-87
2022/09/27 14:29:19;;;;;;;0.00;0.00;;;;;;;;;;4998295;28;20077;-86
2022/09/27 14:31:47;;;;;;;0.00;0.00;;;;;;;;;;5000367;28;20068;-87
2022/09/27 14:34:14;;;;;;;0.00;0.00;;;;;;;;;;4998950;28;20041;-85
2022/09/27 14:39:31;;;;;;;0.00;0.00;;;;;;;;;;5016222;28;20038;-87
2022/09/27 14:41:58;;;;;;;0.00;0.00;;;;;;;;;;4998238;28;20042;-87
2022/09/27 14:44:25;;;;;;;0.00;0.00;;;;;;;;;;5014976;28;20042;-88
2022/09/27 14:47:08;;;;;;;0.00;0.00;;;;;;;;;;5015298;28;20048;-86
2022/09/27 14:49:34;;;;;;;0.00;0.00;;;;;;;;;;4997987;28;20045;-87
2022/09/27 14:52:02;;;;;;;0.00;0.00;;;;;;;;;;4998870;28;20042;-88
2022/09/27 14:54:32;;;;;;;0.00;0.00;;;;;;;;;;4998755;28;20042;-87
2022/09/27 14:56:59;;;;;;;0.00;0.00;;;;;;;;;;4998797;28;20087;-87
2022/09/27 14:59:29;;;;;;;0.00;0.00;;;;;;;;;;4999300;28;20033;-86
2022/09/27 15:01:59;;;;;;;0.00;0.00;;;;;;;;;;4999243;28;20089;-86
2022/09/27 15:04:30;;;;;;;0.00;0.00;;;;;;;;;;4998947;28;20041;-87
2022/09/27 15:06:57;;;;;;;0.00;0.00;;;;;;;;;;4998502;28;20041;-85
2022/09/27 15:09:23;;;;;;;0.00;0.00;;;;;;;;;;5014610;28;20121;-87
2022/09/27 15:11:51;;;;;;;0.00;0.00;;;;;;;;;;4998800;28;20038;-86